Time;durP1;ratioP1;P1;durP2;ratioP2;P2;SDS_P1;SDS_P2;PMS_P1;PMS_P2;Temp;Humidity;BMP_temperature;BMP_pressure;BME280_temperature;BME280_humidity;BME280_pressure;Samples;Min_cycle;Max_cycle;Signal;HPM_P1;HPM_P2
2023/03/20 00:00:50;;;;;;;64.70;62.20;;;11.70;93.70;;;;;;5048894;28;20029;-72
2023/03/20 00:03:16;;;;;;;65.97;63.38;;;11.80;93.70;;;;;;5048616;28;20052;-73
2023/03/20 00:05:42;;;;;;;65.10;62.60;;;11.80;93.70;;;;;;5047170;28;20054;-72
2023/03/20 00:08:08;;;;;;;62.28;59.88;;;11.80;93.70;;;;;;5047852;28;20439;-72
2023/03/20 00:10:38;;;;;;;;;;;11.80;93.70;;;;;;5049332;28;20064;-73
2023/03/20 00:13:06;;;;;;;64.50;62.00;;;11.80;93.70;;;;;;5047096;28;19963;-73
2023/03/20 00:15:42;;;;;;;64.70;62.20;;;11.80;93.70;;;;;;5046980;28;20150;-73
2023/03/20 00:18:26;;;;;;;67.47;64.88;;;11.80;93.70;;;;;;5047386;28;20069;-73
2023/03/20 00:20:52;;;;;;;68.72;66.03;;;11.80;93.70;;;;;;5048511;28;20125;-73
2023/03/20 00:23:18;;;;;;;69.28;66.57;;;11.80;93.70;;;;;;5030841;28;20039;-72
2023/03/20 00:25:45;;;;;;;71.40;68.60;;;11.80;93.70;;;;;;5030894;28;20544;-73
2023/03/20 00:28:40;;;;;;;68.95;66.25;;;11.80;93.70;;;;;;5048514;28;20032;-73
2023/03/20 00:31:25;;;;;;;71.18;68.38;;;11.80;93.70;;;;;;5048356;28;20025;-73
2023/03/20 00:33:53;;;;;;;72.93;70.05;;;11.80;93.70;;;;;;5048382;28;20028;-72
2023/03/20 00:36:19;;;;;;;71.80;69.00;;;11.80;93.70;;;;;;5046961;28;20020;-73
2023/03/20 00:38:45;;;;;;;76.82;73.80;;;11.80;93.70;;;;;;5048293;28;20496;-73
2023/03/20 00:41:34;;;;;;;78.55;75.45;;;11.80;93.80;;;;;;5048341;28;20067;-72
2023/03/20 00:44:37;;;;;;;78.07;74.97;;;11.80;93.80;;;;;;5048216;28;20079;-73
2023/03/20 00:47:11;;;;;;;79.57;76.47;;;11.70;93.80;;;;;;5048261;28;20551;-73
2023/03/20 00:49:39;;;;;;;76.70;73.70;;;11.80;93.80;;;;;;5046685;28;20082;-73
2023/03/20 00:52:05;;;;;;;77.45;74.45;;;11.80;93.80;;;;;;5046780;28;20036;-73
2023/03/20 00:54:31;;;;;;;78.90;75.80;;;11.80;93.80;;;;;;5047811;28;20029;-73
2023/03/20 00:56:57;;;;;;;;;;;11.80;93.80;;;;;;5047268;28;20017;-73
2023/03/20 00:59:45;;;;;;;76.90;73.90;;;11.80;93.80;;;;;;5047859;28;19995;-73
2023/03/20 01:02:10;;;;;;;78.65;75.55;;;11.80;93.80;;;;;;5047411;28;20060;-73
2023/03/20 01:04:40;;;;;;;77.82;74.78;;;11.80;93.80;;;;;;5046576;28;20032;-72
2023/03/20 01:07:11;;;;;;;78.75;75.65;;;11.80;93.80;;;;;;5047852;28;20060;-72
2023/03/20 01:09:36;;;;;;;81.88;78.63;;;11.80;93.80;;;;;;5046284;28;20410;-73
2023/03/20 01:12:03;;;;;;;81.28;78.07;;;11.80;93.80;;;;;;5046472;28;20033;-73
2023/03/20 01:14:29;;;;;;;79.78;76.57;;;11.80;93.80;;;;;;5047624;28;20044;-73
2023/03/20 01:16:55;;;;;;;81.40;78.20;;;11.80;93.80;;;;;;5047658;28;20122;-73
2023/03/20 01:19:21;;;;;;;82.25;78.97;;;11.90;93.80;;;;;;5046375;28;20416;-73
2023/03/20 01:21:46;;;;;;;81.07;77.88;;;11.90;93.80;;;;;;5046224;28;20029;-73
2023/03/20 01:24:12;;;;;;;80.20;77.00;;;11.90;94.00;;;;;;5047522;28;20469;-73
2023/03/20 01:26:42;;;;;;;81.70;78.50;;;11.90;93.80;;;;;;5047427;28;20033;-72
2023/03/20 01:29:29;;;;;;;80.70;77.50;;;11.90;93.80;;;;;;5046098;28;20507;-73
2023/03/20 01:31:55;;;;;;;79.93;76.83;;;11.90;93.90;;;;;;5047500;28;20529;-73
2023/03/20 01:34:22;;;;;;;80.07;76.88;;;11.90;93.80;;;;;;5047246;28;20347;-73
2023/03/20 01:36:53;;;;;;;83.10;79.80;;;11.90;93.90;;;;;;5046103;28;20427;-73
2023/03/20 01:39:23;;;;;;;80.38;77.18;;;11.80;93.90;;;;;;5047287;28;20021;-73
2023/03/20 01:41:50;;;;;;;81.65;78.45;;;11.90;93.90;;;;;;5045990;28;20029;-73
2023/03/20 01:44:26;;;;;;;83.10;79.80;;;11.90;93.90;;;;;;5047107;28;20028;-73
2023/03/20 01:46:52;;;;;;;83.13;79.82;;;11.90;93.90;;;;;;5045889;28;20438;-73
2023/03/20 01:49:18;;;;;;;83.55;80.25;;;11.90;93.90;;;;;;5047216;28;20086;-74
2023/03/20 01:51:45;;;;;;;85.18;81.78;;;11.90;93.90;;;;;;5047076;28;20036;-74
2023/03/20 01:54:17;;;;;;;81.90;78.70;;;11.90;93.90;;;;;;5047199;28;20219;-74
2023/03/20 01:57:03;;;;;;;83.95;80.65;;;11.90;93.90;;;;;;5047135;28;20099;-73
2023/03/20 01:59:32;;;;;;;84.40;81.03;;;11.90;93.90;;;;;;5045805;28;20130;-73
2023/03/20 02:01:58;;;;;;;78.80;75.70;;;11.90;93.90;;;;;;5046978;28;20075;-74
2023/03/20 02:04:34;;;;;;;79.05;75.95;;;11.90;93.90;;;;;;5045736;28;20469;-73
2023/03/20 02:07:01;;;;;;;78.68;75.57;;;11.90;93.90;;;;;;5047034;28;20057;-73
2023/03/20 02:09:27;;;;;;;73.82;70.93;;;11.90;93.90;;;;;;5045633;28;20036;-73
2023/03/20 02:11:53;;;;;;;74.57;71.68;;;12.00;93.90;;;;;;5046954;28;20029;-73
2023/03/20 02:14:20;;;;;;;73.00;70.10;;;12.00;93.90;;;;;;5046949;28;20025;-73
2023/03/20 02:16:46;;;;;;;73.53;70.63;;;12.00;93.90;;;;;;5045561;28;20036;-73
2023/03/20 02:19:38;;;;;;;69.65;66.93;;;12.00;93.90;;;;;;5045798;28;20550;-73
2023/03/20 02:22:09;;;;;;;69.30;66.60;;;12.00;93.90;;;;;;5042645;28;20041;-73
2023/03/20 02:24:41;;;;;;;69.00;66.30;;;12.00;93.90;;;;;;5046897;28;20021;-73
2023/03/20 02:27:43;;;;;;;69.68;66.97;;;12.00;93.90;;;;;;5045720;28;20023;-73
2023/03/20 02:30:14;;;;;;;63.15;60.70;;;12.00;94.10;;;;;;5046858;28;20029;-74
2023/03/20 02:33:22;;;;;;;64.43;61.92;;;12.00;93.90;;;;;;5045592;28;20021;-74
2023/03/20 02:36:03;;;;;;;64.03;61.53;;;12.00;93.90;;;;;;5037227;28;20060;-73
2023/03/20 02:39:13;;;;;;;63.92;61.42;;;12.00;93.90;;;;;;5048649;28;20101;-74
2023/03/20 02:41:58;;;;;;;65.07;62.58;;;12.00;94.00;;;;;;5008483;28;20121;-74
2023/03/20 02:44:36;;;;;;;62.35;59.95;;;12.00;94.00;;;;;;4991853;28;20492;-73
2023/03/20 02:47:20;;;;;;;62.05;59.65;;;12.00;94.00;;;;;;5032011;28;20048;-73
2023/03/20 02:49:59;;;;;;;60.33;58.03;;;12.00;94.00;;;;;;5049000;28;20021;-74
2023/03/20 02:52:55;;;;;;;61.28;58.88;;;12.00;94.00;;;;;;5050513;28;20021;-74
2023/03/20 02:55:46;;;;;;;58.10;55.90;;;12.00;94.00;;;;;;5050341;28;20470;-73
2023/03/20 02:58:44;;;;;;;56.45;54.25;;;12.00;94.20;;;;;;5050326;28;20128;-73
2023/03/20 03:01:19;;;;;;;58.50;56.25;;;12.00;94.00;;;;;;5050256;28;20021;-73
2023/03/20 03:03:57;;;;;;;57.80;55.60;;;12.10;94.30;;;;;;5050088;28;20045;-73
2023/03/20 03:06:28;;;;;;;57.92;55.72;;;12.10;94.00;;;;;;5049997;28;20029;-73
2023/03/20 03:09:02;;;;;;;60.22;57.92;;;12.10;94.00;;;;;;5050293;28;20540;-73
2023/03/20 03:11:31;;;;;;;60.67;58.38;;;12.10;94.00;;;;;;5048696;28;20037;-74
2023/03/20 03:13:57;;;;;;;58.58;56.33;;;12.00;94.00;;;;;;5049923;28;20496;-74
2023/03/20 03:16:31;;;;;;;58.03;55.83;;;12.00;94.00;;;;;;5048396;28;20036;-73
2023/03/20 03:19:09;;;;;;;59.50;57.20;;;12.00;94.00;;;;;;5049847;28;20401;-73
2023/03/20 03:21:39;;;;;;;57.20;55.00;;;12.00;94.00;;;;;;5049818;28;20276;-73
2023/03/20 03:24:18;;;;;;;55.90;53.80;;;12.00;94.00;;;;;;5048500;28;20033;-73
2023/03/20 03:26:44;;;;;;;58.63;56.40;;;12.00;94.00;;;;;;5048421;28;20032;-73
2023/03/20 03:29:16;;;;;;;56.85;54.65;;;12.00;94.00;;;;;;5049530;28;20036;-74
2023/03/20 03:31:43;;;;;;;55.85;53.75;;;12.00;94.00;;;;;;5049682;28;20063;-73
2023/03/20 03:34:16;;;;;;;55.92;53.83;;;12.00;94.00;;;;;;5049735;28;20108;-73
2023/03/20 03:37:15;;;;;;;53.28;51.28;;;12.00;94.10;;;;;;5049481;28;20098;-73
2023/03/20 03:40:04;;;;;;;54.65;52.55;;;12.00;94.10;;;;;;5049537;28;20025;-73
2023/03/20 03:42:36;;;;;;;54.05;52.05;;;12.00;94.10;;;;;;5049500;28;20029;-73
2023/03/20 03:45:21;;;;;;;54.33;52.22;;;12.00;94.10;;;;;;5048275;28;20036;-73
2023/03/20 03:48:05;;;;;;;52.33;50.33;;;12.00;94.10;;;;;;5048959;28;20025;-73
2023/03/20 03:50:36;;;;;;;53.42;51.42;;;12.00;94.10;;;;;;5048732;28;20044;-74
2023/03/20 03:53:10;;;;;;;50.72;48.83;;;12.00;94.10;;;;;;5049242;28;20049;-73
2023/03/20 03:55:49;;;;;;;54.90;52.80;;;12.10;94.10;;;;;;5047840;28;20044;-73
2023/03/20 03:58:19;;;;;;;51.03;49.13;;;12.10;94.10;;;;;;5049072;28;20135;-73
2023/03/20 04:00:49;;;;;;;53.80;51.80;;;12.10;94.10;;;;;;5049197;28;20428;-74
2023/03/20 04:03:17;;;;;;;53.05;51.05;;;12.10;94.10;;;;;;5048785;28;20482;-74
2023/03/20 04:05:45;;;;;;;53.30;51.30;;;12.10;94.10;;;;;;5047574;28;20124;-73
2023/03/20 04:08:11;;;;;;;52.20;50.20;;;12.10;94.10;;;;;;5048976;28;20112;-73
2023/03/20 04:10:36;;;;;;;48.88;47.05;;;12.10;94.10;;;;;;5048755;28;20029;-73
2023/03/20 04:13:02;;;;;;;49.38;47.47;;;12.10;94.10;;;;;;5047619;28;20024;-73
2023/03/20 04:15:29;;;;;;;50.55;48.65;;;12.10;94.10;;;;;;5047602;28;20060;-73
2023/03/20 04:17:55;;;;;;;51.17;49.28;;;12.10;94.10;;;;;;5048767;28;20025;-73
2023/03/20 04:20:21;;;;;;;48.35;46.55;;;12.10;94.10;;;;;;5030812;28;20041;-73
2023/03/20 04:22:47;;;;;;;49.50;47.60;;;12.10;94.10;;;;;;5049105;28;20425;-73
2023/03/20 04:25:23;;;;;;;48.72;46.92;;;12.10;94.10;;;;;;5048473;28;20115;-74
2023/03/20 04:27:49;;;;;;;50.13;48.22;;;12.10;94.10;;;;;;5048618;28;20032;-73
2023/03/20 04:30:15;;;;;;;49.00;47.17;;;12.10;94.10;;;;;;5048535;28;20029;-73
2023/03/20 04:32:41;;;;;;;;;;;12.10;94.10;;;;;;5048935;28;20382;-73
2023/03/20 04:35:07;;;;;;;49.50;47.60;;;12.10;94.10;;;;;;5048420;28;19954;-73
2023/03/20 04:37:33;;;;;;;;;;;12.10;94.10;;;;;;5048779;28;20040;-73
2023/03/20 04:39:59;;;;;;;50.60;48.70;;;12.10;94.10;;;;;;5048449;28;20130;-73
2023/03/20 04:42:24;;;;;;;52.42;50.42;;;12.10;94.10;;;;;;5048303;28;20032;-73
2023/03/20 04:44:50;;;;;;;49.45;47.55;;;12.10;94.10;;;;;;5046879;28;20040;-73
2023/03/20 04:47:16;;;;;;;49.22;47.38;;;12.10;94.10;;;;;;5048241;28;20036;-73
2023/03/20 04:49:42;;;;;;;48.60;46.80;;;12.10;94.10;;;;;;5030368;28;20362;-73
2023/03/20 04:52:07;;;;;;;46.30;44.60;;;12.10;94.10;;;;;;5046893;28;20050;-73
2023/03/20 04:54:34;;;;;;;45.25;43.55;;;12.10;94.10;;;;;;5048016;28;20033;-73
2023/03/20 04:57:00;;;;;;;48.55;46.75;;;12.10;94.10;;;;;;5047977;28;20021;-73
2023/03/20 04:59:26;;;;;;;44.20;42.50;;;12.10;94.10;;;;;;5030035;28;20037;-73
2023/03/20 05:01:52;;;;;;;46.70;44.90;;;12.10;94.10;;;;;;5047845;28;20053;-73
2023/03/20 05:04:17;;;;;;;48.15;46.35;;;12.10;94.20;;;;;;5047821;28;20029;-73
2023/03/20 05:06:47;;;;;;;46.60;44.80;;;12.10;94.10;;;;;;5047672;28;20033;-73
2023/03/20 05:09:12;;;;;;;47.35;45.55;;;12.10;94.20;;;;;;5047697;28;20045;-73
2023/03/20 05:11:38;;;;;;;48.13;46.33;;;12.10;94.20;;;;;;5046536;28;20473;-73
2023/03/20 05:14:05;;;;;;;47.00;45.20;;;12.10;94.20;;;;;;5047758;28;20388;-73
2023/03/20 05:16:31;;;;;;;47.28;45.47;;;12.10;94.10;;;;;;5046392;28;20029;-73
2023/03/20 05:18:57;;;;;;;45.22;43.53;;;12.10;94.10;;;;;;5047586;28;20498;-73
2023/03/20 05:21:22;;;;;;;43.88;42.22;;;12.10;94.20;;;;;;5047616;28;20489;-73
2023/03/20 05:23:48;;;;;;;45.00;43.30;;;12.10;94.20;;;;;;5029646;28;20033;-72
2023/03/20 05:26:14;;;;;;;48.85;47.05;;;12.10;94.20;;;;;;5047498;28;20052;-73
2023/03/20 05:28:40;;;;;;;48.65;46.85;;;12.10;94.20;;;;;;5047615;28;20473;-73
2023/03/20 05:31:06;;;;;;;49.78;47.88;;;12.10;94.20;;;;;;5047381;28;20033;-73
2023/03/20 05:33:31;;;;;;;50.53;48.63;;;12.10;94.20;;;;;;5047457;28;20021;-73
2023/03/20 05:35:57;;;;;;;51.40;49.50;;;12.10;94.20;;;;;;5047357;28;20473;-71
2023/03/20 05:38:24;;;;;;;52.42;50.42;;;12.10;94.20;;;;;;5045918;28;20036;-73
2023/03/20 05:40:54;;;;;;;51.97;49.97;;;12.10;94.20;;;;;;5047396;28;20398;-74
2023/03/20 05:43:20;;;;;;;53.15;51.15;;;12.10;94.20;;;;;;5047363;28;20035;-73
2023/03/20 05:45:46;;;;;;;51.63;49.65;;;12.10;94.20;;;;;;5045916;28;20033;-73
2023/03/20 05:48:11;;;;;;;56.95;54.75;;;12.00;94.10;;;;;;5047307;28;20454;-73
2023/03/20 05:50:37;;;;;;;59.90;57.60;;;12.00;94.10;;;;;;5029268;28;20312;-74
2023/03/20 05:53:03;;;;;;;58.40;56.20;;;12.00;94.10;;;;;;5046000;28;20094;-73
2023/03/20 05:55:28;;;;;;;61.30;58.95;;;12.00;94.20;;;;;;5047138;28;20033;-73
2023/03/20 05:57:54;;;;;;;60.90;58.55;;;12.00;94.20;;;;;;5045938;28;20029;-73
2023/03/20 06:00:20;;;;;;;59.60;57.30;;;12.00;94.10;;;;;;5045751;28;20033;-73
2023/03/20 06:02:46;;;;;;;60.22;57.92;;;12.00;94.20;;;;;;5046842;28;20045;-73
2023/03/20 06:05:12;;;;;;;61.35;58.95;;;12.00;94.20;;;;;;5047074;28;20500;-73
2023/03/20 06:07:37;;;;;;;61.38;58.97;;;12.00;94.20;;;;;;5047172;28;20033;-73
2023/03/20 06:10:03;;;;;;;67.07;64.47;;;12.00;94.20;;;;;;5047113;28;20497;-73
2023/03/20 06:12:29;;;;;;;68.28;65.60;;;12.00;94.20;;;;;;5048813;28;20033;-74
2023/03/20 06:14:55;;;;;;;68.13;65.45;;;11.90;94.10;;;;;;5051110;28;20021;-73
2023/03/20 06:17:21;;;;;;;72.03;69.22;;;11.90;94.10;;;;;;5051569;28;20033;-73
2023/03/20 06:19:46;;;;;;;70.43;67.63;;;11.90;94.10;;;;;;5050727;28;20350;-74
2023/03/20 06:22:12;;;;;;;70.20;67.40;;;11.90;94.10;;;;;;5050965;28;20109;-73
2023/03/20 06:24:38;;;;;;;69.90;67.18;;;11.90;94.10;;;;;;5050805;28;20389;-73
2023/03/20 06:27:03;;;;;;;70.47;67.68;;;11.80;94.10;;;;;;5050814;28;20303;-73
2023/03/20 06:29:29;;;;;;;68.88;66.18;;;11.80;94.10;;;;;;5050629;28;20055;-73
2023/03/20 06:31:55;;;;;;;70.13;67.32;;;11.80;94.10;;;;;;5050602;28;20414;-73
2023/03/20 06:34:21;;;;;;;69.05;66.35;;;11.80;94.10;;;;;;5032652;28;20063;-73
2023/03/20 06:36:47;;;;;;;70.55;67.75;;;11.80;94.20;;;;;;5050792;28;20473;-73
2023/03/20 06:39:13;;;;;;;68.72;66.03;;;11.90;94.20;;;;;;5050537;28;20389;-73
2023/03/20 06:41:39;;;;;;;63.55;61.05;;;11.80;94.10;;;;;;5049336;28;20022;-73
2023/03/20 06:44:05;;;;;;;66.45;63.85;;;11.80;94.10;;;;;;5050435;28;20033;-73
2023/03/20 06:46:31;;;;;;;61.10;58.70;;;11.80;94.20;;;;;;5050546;28;20115;-73
2023/03/20 06:48:56;;;;;;;61.60;59.20;;;11.80;94.10;;;;;;5050345;28;20163;-74
2023/03/20 06:51:22;;;;;;;59.05;56.75;;;11.80;94.20;;;;;;5050318;28;20078;-74
2023/03/20 06:53:48;;;;;;;59.50;57.20;;;11.80;94.20;;;;;;5050272;28;20033;-73
2023/03/20 06:56:13;;;;;;;56.67;54.47;;;11.80;94.20;;;;;;5048745;28;20485;-73
2023/03/20 06:58:39;;;;;;;54.67;52.58;;;11.80;94.20;;;;;;5048367;28;20044;-73
2023/03/20 07:01:10;;;;;;;54.47;52.38;;;11.90;94.20;;;;;;5050087;28;20037;-73
2023/03/20 07:03:36;;;;;;;54.03;51.92;;;11.90;94.20;;;;;;5049801;28;20049;-72
2023/03/20 07:06:02;;;;;;;51.13;49.13;;;12.00;94.30;;;;;;5050031;28;20035;-72
2023/03/20 07:08:28;;;;;;;50.45;48.50;;;12.00;94.20;;;;;;5049677;28;20029;-72
2023/03/20 07:10:54;;;;;;;52.53;50.53;;;12.00;94.20;;;;;;5049986;28;20044;-73
2023/03/20 07:13:19;;;;;;;51.22;49.22;;;12.10;94.30;;;;;;5048652;28;20421;-73
2023/03/20 07:15:45;;;;;;;50.85;48.90;;;12.10;94.20;;;;;;5048811;28;20040;-73
2023/03/20 07:18:11;;;;;;;50.45;48.55;;;12.20;94.20;;;;;;5049819;28;20029;-73
2023/03/20 07:20:36;;;;;;;50.75;48.85;;;12.20;94.20;;;;;;5049975;28;20049;-72
2023/03/20 07:23:02;;;;;;;47.25;45.45;;;12.20;94.20;;;;;;5049436;28;20033;-73
2023/03/20 07:25:28;;;;;;;48.10;46.30;;;12.20;94.20;;;;;;5031817;28;20031;-72
2023/03/20 07:27:54;;;;;;;47.42;45.63;;;12.30;94.20;;;;;;5048153;28;20488;-73
2023/03/20 07:30:20;;;;;;;39.75;38.25;;;12.30;94.20;;;;;;5049500;28;20032;-72
2023/03/20 07:32:47;;;;;;;41.20;39.60;;;12.20;94.20;;;;;;5049915;28;20036;-72
2023/03/20 07:35:12;;;;;;;40.00;38.50;;;12.20;94.20;;;;;;5047702;28;20032;-73
2023/03/20 07:37:38;;;;;;;39.63;38.13;;;12.20;94.20;;;;;;5031452;28;20022;-73
2023/03/20 07:40:04;;;;;;;38.33;36.83;;;12.20;94.20;;;;;;5049325;28;20451;-73
2023/03/20 07:42:30;;;;;;;36.97;35.58;;;12.20;94.20;;;;;;5047930;28;20078;-73
2023/03/20 07:44:56;;;;;;;35.22;33.85;;;12.20;94.30;;;;;;5049155;28;20473;-73
2023/03/20 07:47:21;;;;;;;32.50;31.30;;;12.30;94.30;;;;;;5049094;28;20043;-73
2023/03/20 07:49:47;;;;;;;32.78;31.50;;;12.30;94.30;;;;;;5047853;28;20036;-74
2023/03/20 07:52:13;;;;;;;28.95;27.85;;;12.40;94.40;;;;;;5048882;28;20100;-73
2023/03/20 07:54:39;;;;;;;26.50;25.50;;;12.40;94.30;;;;;;5048927;28;20025;-73
2023/03/20 07:57:05;;;;;;;27.80;26.70;;;12.50;94.30;;;;;;5049047;28;20033;-73
2023/03/20 07:59:31;;;;;;;25.48;24.48;;;12.50;94.30;;;;;;5048647;28;20064;-73
2023/03/20 08:01:57;;;;;;;23.67;22.77;;;12.60;94.30;;;;;;5048525;28;20080;-73
2023/03/20 08:04:22;;;;;;;22.88;21.98;;;12.70;94.30;;;;;;5047567;28;20489;-74
2023/03/20 08:06:49;;;;;;;19.20;18.40;;;12.60;94.30;;;;;;5048993;28;20533;-73
2023/03/20 08:09:15;;;;;;;18.70;17.90;;;12.70;94.30;;;;;;5047336;28;20374;-73
2023/03/20 08:11:41;;;;;;;17.25;16.55;;;12.80;94.40;;;;;;5047373;28;20397;-73
2023/03/20 08:14:07;;;;;;;18.23;17.48;;;12.80;94.40;;;;;;5048421;28;20028;-73
2023/03/20 08:16:33;;;;;;;17.92;17.23;;;12.90;94.40;;;;;;5046902;28;20125;-74
2023/03/20 08:19:02;;;;;;;19.63;18.83;;;12.90;94.30;;;;;;5048337;28;20028;-74
2023/03/20 08:21:31;;;;;;;17.35;16.65;;;13.00;94.40;;;;;;5047237;28;20543;-73
2023/03/20 08:23:58;;;;;;;17.98;17.27;;;13.00;94.40;;;;;;5048684;28;20059;-73
2023/03/20 08:26:24;;;;;;;;;;;13.00;94.40;;;;;;5048744;28;20380;-73
2023/03/20 08:28:50;;;;;;;15.88;15.18;;;13.10;94.40;;;;;;5048255;28;20383;-73
2023/03/20 08:31:16;;;;;;;15.77;15.07;;;13.10;94.30;;;;;;5048179;28;20033;-73
2023/03/20 08:33:46;;;;;;;17.67;16.98;;;13.10;94.30;;;;;;5048234;28;20464;-74
2023/03/20 08:36:14;;;;;;;15.75;15.05;;;13.10;94.30;;;;;;5046161;28;20549;-73
2023/03/20 08:38:40;;;;;;;14.25;13.65;;;13.20;94.40;;;;;;5048107;28;20029;-72
2023/03/20 08:41:06;;;;;;;;;;;13.20;94.40;;;;;;5049849;28;20075;-73
2023/03/20 08:43:32;;;;;;;13.40;12.80;;;13.30;94.40;;;;;;5046368;28;19905;-73
2023/03/20 08:45:58;;;;;;;13.80;13.20;;;13.30;94.40;;;;;;5047593;28;20037;-73
2023/03/20 08:48:25;;;;;;;13.30;12.70;;;13.40;94.40;;;;;;5047834;28;20025;-73
2023/03/20 08:50:50;;;;;;;11.90;11.40;;;13.50;94.50;;;;;;5047617;28;20120;-72
2023/03/20 08:53:16;;;;;;;11.25;10.75;;;13.70;94.50;;;;;;5046250;28;20196;-73
2023/03/20 08:55:48;;;;;;;10.35;9.85;;;13.80;94.50;;;;;;5047421;28;20025;-73
2023/03/20 08:58:13;;;;;;;8.15;7.75;;;14.00;94.50;;;;;;5046422;28;20031;-74
2023/03/20 09:00:40;;;;;;;9.15;8.75;;;14.00;94.40;;;;;;5046321;28;20048;-73
2023/03/20 09:03:08;;;;;;;8.20;7.80;;;14.10;94.40;;;;;;5046134;28;20144;-73
2023/03/20 09:05:36;;;;;;;8.38;7.97;;;14.20;94.40;;;;;;5043846;28;20428;-73
2023/03/20 09:08:01;;;;;;;7.10;6.70;;;14.30;94.40;;;;;;5038731;28;20115;-72
2023/03/20 09:10:27;;;;;;;7.63;7.22;;;14.30;94.40;;;;;;5036078;28;20108;-71
2023/03/20 09:12:53;;;;;;;6.70;6.30;;;14.50;94.50;;;;;;5037527;28;20378;-71
2023/03/20 09:15:19;;;;;;;5.90;5.60;;;14.70;94.60;;;;;;5038442;28;20381;-71
2023/03/20 09:17:44;;;;;;;5.20;4.90;;;14.90;94.50;;;;;;5037846;28;20037;-71
2023/03/20 09:20:11;;;;;;;5.10;4.80;;;15.00;94.40;;;;;;5036485;28;20409;-72
2023/03/20 09:22:39;;;;;;;6.80;6.40;;;15.10;94.40;;;;;;5034915;28;20025;-72
2023/03/20 09:25:06;;;;;;;6.80;6.40;;;15.10;94.30;;;;;;5037873;28;20405;-71
2023/03/20 09:27:32;;;;;;;4.80;4.50;;;15.20;94.50;;;;;;5036955;28;20020;-71
2023/03/20 09:29:57;;;;;;;3.22;3.03;;;15.70;95.40;;;;;;5036405;28;20032;-72
2023/03/20 09:32:23;;;;;;;2.80;2.60;;;16.60;95.30;;;;;;5036862;28;20096;-72
2023/03/20 09:34:49;;;;;;;2.10;1.90;;;17.40;95.30;;;;;;5037326;28;20047;-74
2023/03/20 09:37:14;;;;;;;0.90;0.90;;;18.50;95.60;;;;;;5035379;28;20032;-75
2023/03/20 09:39:40;;;;;;;;;;;19.50;95.10;;;;;;5037255;28;20118;-74
2023/03/20 09:43:03;;;;;;;1.52;1.42;;;19.60;94.10;;;;;;5036608;28;20276;-73
2023/03/20 09:45:43;;;;;;;1.70;1.60;;;19.20;93.80;;;;;;5020741;28;20029;-73
2023/03/20 09:48:26;;;;;;;1.70;1.60;;;18.60;93.80;;;;;;5023466;28;20083;-75
2023/03/20 09:51:00;;;;;;;1.95;1.85;;;18.10;93.90;;;;;;5026592;28;20049;-72
2023/03/20 09:53:56;;;;;;;2.20;2.00;;;17.70;94.10;;;;;;5034778;28;20029;-73
2023/03/20 09:56:28;;;;;;;2.20;2.00;;;17.40;94.30;;;;;;5036085;28;20037;-74
2023/03/20 09:58:57;;;;;;;2.30;2.10;;;17.20;94.40;;;;;;5036884;28;20024;-74
2023/03/20 10:01:28;;;;;;;2.50;2.30;;;17.10;94.50;;;;;;5037921;28;20028;-74
2023/03/20 10:04:00;;;;;;;2.30;2.10;;;17.00;94.40;;;;;;5038170;28;20120;-74
2023/03/20 10:06:26;;;;;;;2.20;2.00;;;16.90;94.40;;;;;;5039401;28;20016;-74
2023/03/20 10:08:51;;;;;;;;;;;16.90;94.50;;;;;;5039574;28;20114;-74
2023/03/20 10:11:36;;;;;;;2.30;2.10;;;16.90;94.50;;;;;;5039025;28;19912;-74
2023/03/20 10:14:29;;;;;;;1.95;1.85;;;17.00;94.70;;;;;;5034693;28;20022;-74
2023/03/20 10:17:10;;;;;;;1.65;1.55;;;17.30;95.10;;;;;;5033529;28;20033;-74
2023/03/20 10:19:56;;;;;;;1.40;1.30;;;17.70;95.00;;;;;;5037589;28;20041;-74
2023/03/20 10:22:28;;;;;;;1.48;1.38;;;18.00;94.80;;;;;;5035247;28;20026;-75
2023/03/20 10:25:12;;;;;;;1.30;1.20;;;18.10;94.70;;;;;;5032790;28;20497;-74
2023/03/20 10:27:57;;;;;;;1.30;1.20;;;18.20;94.50;;;;;;5037032;28;20055;-74
2023/03/20 10:30:35;;;;;;;1.67;1.58;;;18.00;94.30;;;;;;5036336;28;20113;-74
2023/03/20 10:33:26;;;;;;;1.80;1.70;;;17.70;94.10;;;;;;5037132;28;20029;-74
2023/03/20 10:36:11;;;;;;;2.05;1.85;;;17.50;94.20;;;;;;5036726;28;20022;-75
2023/03/20 10:39:13;;;;;;;1.73;1.63;;;17.10;94.30;;;;;;5035826;28;20025;-73
2023/03/20 10:41:45;;;;;;;1.80;1.70;;;16.90;94.40;;;;;;5037507;28;20125;-69
2023/03/20 10:44:24;;;;;;;1.88;1.77;;;16.80;94.40;;;;;;5039607;28;20032;-74
2023/03/20 10:46:55;;;;;;;1.90;1.80;;;16.60;94.40;;;;;;5037044;28;20038;-73
2023/03/20 10:49:35;;;;;;;2.17;1.98;;;16.50;94.50;;;;;;5033393;28;20041;-74
2023/03/20 10:52:05;;;;;;;1.90;1.80;;;16.40;94.40;;;;;;5032696;28;20033;-73
2023/03/20 10:54:35;;;;;;;2.10;1.90;;;16.30;94.40;;;;;;5029154;28;20558;-74
2023/03/20 10:57:04;;;;;;;1.90;1.80;;;16.10;94.40;;;;;;5031295;28;20033;-74
2023/03/20 10:59:38;;;;;;;2.47;2.28;;;16.10;94.50;;;;;;5036195;28;20013;-75
2023/03/20 11:02:11;;;;;;;2.00;1.90;;;16.00;94.60;;;;;;5040753;28;20491;-74
2023/03/20 11:04:37;;;;;;;2.03;1.90;;;16.10;94.60;;;;;;5043287;28;20155;-75
2023/03/20 11:07:09;;;;;;;;;;;16.10;94.60;;;;;;5042813;28;20093;-75
2023/03/20 11:09:35;;;;;;;2.20;2.00;;;16.20;94.60;;;;;;5039745;28;19972;-75
2023/03/20 11:12:01;;;;;;;;;;;16.20;94.60;;;;;;5041436;28;20021;-74
2023/03/20 11:14:33;;;;;;;2.50;2.30;;;16.20;94.50;;;;;;5022989;28;19909;-75
2023/03/20 11:17:02;;;;;;;2.40;2.20;;;16.20;94.70;;;;;;5039433;28;20040;-73
2023/03/20 11:19:32;;;;;;;2.15;1.95;;;16.30;94.60;;;;;;5037441;28;20018;-73
2023/03/20 11:22:06;;;;;;;2.25;2.05;;;16.30;94.60;;;;;;5041118;28;20100;-75
2023/03/20 11:24:40;;;;;;;1.90;1.80;;;16.40;94.70;;;;;;5038949;28;20025;-73
2023/03/20 11:27:17;;;;;;;1.90;1.80;;;16.50;94.60;;;;;;5043042;28;20666;-74
2023/03/20 11:29:48;;;;;;;1.73;1.63;;;16.60;94.70;;;;;;5038102;28;20450;-74
2023/03/20 11:32:34;;;;;;;1.50;1.40;;;16.70;94.60;;;;;;5041528;28;20032;-74
2023/03/20 11:35:21;;;;;;;1.70;1.60;;;16.80;94.60;;;;;;5039396;28;20678;-75
2023/03/20 11:37:48;;;;;;;;;;;16.90;94.60;;;;;;5038912;28;20522;-75
2023/03/20 11:40:20;;;;;;;1.45;1.35;;;16.90;94.50;;;;;;5041010;28;19904;-75
2023/03/20 11:43:00;;;;;;;1.50;1.40;;;16.90;94.50;;;;;;5036459;28;20025;-74
2023/03/20 11:45:32;;;;;;;1.50;1.40;;;17.00;94.50;;;;;;5039556;28;20053;-74
2023/03/20 11:48:00;;;;;;;1.30;1.20;;;17.10;94.60;;;;;;5038729;28;20083;-73
2023/03/20 11:50:34;;;;;;;1.25;1.17;;;17.20;94.50;;;;;;5038343;28;20038;-75
2023/03/20 11:53:16;;;;;;;1.30;1.20;;;17.20;94.50;;;;;;5039146;28;20044;-75
2023/03/20 11:55:59;;;;;;;1.13;1.10;;;17.30;94.60;;;;;;5033651;28;20024;-77
2023/03/20 11:58:25;;;;;;;1.10;1.10;;;17.40;94.70;;;;;;5037873;28;20123;-74
2023/03/20 12:00:53;;;;;;;1.00;1.00;;;17.60;94.60;;;;;;5040012;28;20029;-74
2023/03/20 12:03:43;;;;;;;1.40;1.30;;;17.70;94.60;;;;;;5036941;28;20135;-74
2023/03/20 12:06:15;;;;;;;0.90;0.90;;;17.70;94.50;;;;;;5036296;28;20037;-75
2023/03/20 12:08:52;;;;;;;1.00;1.00;;;17.70;94.50;;;;;;5047937;28;20061;-73
2023/03/20 12:11:36;;;;;;;1.00;1.00;;;17.80;94.50;;;;;;5048799;28;20351;-74
2023/03/20 12:14:06;;;;;;;0.90;0.90;;;17.80;94.50;;;;;;5049188;28;20024;-72
2023/03/20 12:16:35;;;;;;;0.98;0.98;;;17.80;94.50;;;;;;5047392;28;20021;-74
2023/03/20 12:19:05;;;;;;;0.90;0.90;;;17.70;94.40;;;;;;5048721;28;20099;-76
2023/03/20 12:22:15;;;;;;;0.90;0.90;;;17.70;94.50;;;;;;5049193;28;20028;-73
2023/03/20 12:25:02;;;;;;;0.90;0.90;;;17.70;94.60;;;;;;5026123;28;20068;-74
2023/03/20 12:27:35;;;;;;;1.00;1.00;;;17.70;94.40;;;;;;5026527;28;20087;-78
2023/03/20 12:30:17;;;;;;;1.00;1.00;;;17.60;94.50;;;;;;5041763;28;20056;-75
2023/03/20 12:33:24;;;;;;;1.30;1.20;;;17.50;94.50;;;;;;5047573;28;20135;-74
2023/03/20 12:35:52;;;;;;;1.30;1.20;;;17.50;94.60;;;;;;5026091;28;20413;-74
2023/03/20 12:38:28;;;;;;;1.30;1.20;;;17.50;94.60;;;;;;5009864;28;20103;-75
2023/03/20 12:41:12;;;;;;;1.13;1.10;;;17.50;94.70;;;;;;5037937;28;20491;-75
2023/03/20 12:44:12;;;;;;;1.00;1.00;;;17.70;94.90;;;;;;5048610;28;20074;-75
2023/03/20 12:46:49;;;;;;;0.80;0.80;;;18.20;95.30;;;;;;5048691;28;20138;-75
2023/03/20 12:49:15;;;;;;;;;;;18.80;95.30;;;;;;5047514;28;20389;-75
2023/03/20 12:51:57;;;;;;;0.50;0.50;;;19.50;95.10;;;;;;5048444;28;19916;-75
2023/03/20 12:54:58;;;;;;;0.30;0.30;;;20.00;95.10;;;;;;5048225;28;20028;-74
2023/03/20 12:58:21;;;;;;;0.30;0.30;;;20.50;95.10;;;;;;5048838;28;20454;-76